Time;durP1;ratioP1;P1;durP2;ratioP2;P2;SDS_P1;SDS_P2;PMS_P1;PMS_P2;Temp;Humidity;BMP_temperature;BMP_pressure;BME280_temperature;BME280_humidity;BME280_pressure;Samples;Min_cycle;Max_cycle;Signal;HPM_P1;HPM_P2
2022/10/31 00:01:36;;;;;;;4.47;4.07;;;;;;;22.74;61.73;97931.78;5060252;28;20322;-31
2022/10/31 00:04:04;;;;;;;4.77;4.13;;;;;;;22.73;61.70;97925.75;5058499;28;20219;-31
2022/10/31 00:06:30;;;;;;;3.97;3.57;;;;;;;22.73;61.83;97928.31;5052697;28;20212;-31
2022/10/31 00:09:02;;;;;;;4.40;4.00;;;;;;;22.74;61.64;97929.22;5053184;28;20657;-31
2022/10/31 00:11:29;;;;;;;4.93;3.93;;;;;;;22.73;61.81;97930.00;5052781;28;20240;-31
2022/10/31 00:13:57;;;;;;;4.27;3.63;;;;;;;22.73;61.79;97922.31;5052633;28;20220;-31
2022/10/31 00:16:24;;;;;;;3.97;3.57;;;;;;;22.73;61.77;97924.88;5052413;28;20220;-31
2022/10/31 00:18:51;;;;;;;4.00;3.70;;;;;;;22.72;61.81;97926.59;5059284;28;20682;-31
2022/10/31 00:21:18;;;;;;;4.40;4.00;;;;;;;22.71;61.72;97922.28;5056784;28;20216;-31
2022/10/31 00:23:44;;;;;;;4.50;4.10;;;;;;;22.72;61.91;97920.59;5052731;28;20212;-31
2022/10/31 00:26:12;;;;;;;4.50;4.10;;;;;;;22.68;61.76;97916.19;5052035;28;20828;-31
2022/10/31 00:28:38;;;;;;;4.27;3.87;;;;;;;22.71;61.33;97919.72;5064693;28;20212;-31
2022/10/31 00:31:07;;;;;;;4.10;3.70;;;;;;;22.71;61.78;97924.84;5053119;28;20414;-31
2022/10/31 00:33:37;;;;;;;5.07;4.40;;;;;;;22.65;61.79;97911.00;5052250;28;20270;-31
2022/10/31 00:36:04;;;;;;;4.17;3.80;;;;;;;22.72;61.87;97928.28;5052006;28;20224;-31
2022/10/31 00:38:31;;;;;;;4.53;4.13;;;;;;;22.71;61.79;97924.84;5051977;28;20207;-31
2022/10/31 00:40:57;;;;;;;4.30;3.90;;;;;;;22.72;61.80;97930.84;5063470;28;20224;-31
2022/10/31 00:43:24;;;;;;;4.30;3.90;;;;;;;22.64;61.77;97916.91;5051902;28;20204;-31
2022/10/31 00:45:50;;;;;;;4.20;3.80;;;;;;;22.72;61.73;97935.97;5063143;28;20683;-31
2022/10/31 00:48:17;;;;;;;4.60;4.10;;;;;;;22.68;62.06;97927.31;5052139;28;20209;-31
2022/10/31 00:50:43;;;;;;;4.43;4.00;;;;;;;22.71;62.04;97932.53;5051271;28;20610;-31
2022/10/31 00:53:10;;;;;;;3.97;3.67;;;;;;;22.69;61.88;97926.50;5063193;28;20211;-31
2022/10/31 00:55:36;;;;;;;3.90;3.60;;;;;;;22.71;62.13;97937.66;5051268;28;20212;-31
2022/10/31 00:58:03;;;;;;;4.30;3.90;;;;;;;22.71;61.89;97929.97;5051448;28;20204;-31
2022/10/31 01:00:30;;;;;;;4.20;3.80;;;;;;;22.68;61.87;97918.78;5052028;28;20231;-31
2022/10/31 01:02:57;;;;;;;4.57;4.17;;;;;;;22.68;61.70;97916.19;5064755;28;20208;-31
2022/10/31 01:05:24;;;;;;;4.10;3.80;;;;;;;22.71;61.76;97924.84;5051708;28;20238;-31
2022/10/31 01:07:50;;;;;;;4.43;4.03;;;;;;;22.72;61.55;97929.16;5051664;28;20607;-31
2022/10/31 01:10:17;;;;;;;4.20;3.80;;;;;;;22.72;61.76;97941.97;5051034;28;20221;-31
2022/10/31 01:12:45;;;;;;;4.47;4.07;;;;;;;22.73;61.87;97932.56;5051390;28;20797;-31
2022/10/31 01:15:13;;;;;;;4.50;4.10;;;;;;;22.73;61.95;97932.56;5051107;28;20603;-31
2022/10/31 01:17:39;;;;;;;5.80;4.13;;;;;;;22.73;61.67;97927.44;5051558;28;20204;-31
2022/10/31 01:20:07;;;;;;;5.03;4.27;;;;;;;22.72;61.70;97923.16;5064475;28;20221;-31
2022/10/31 01:22:33;;;;;;;4.30;3.90;;;;;;;22.71;61.74;97924.84;5051395;28;20228;-31
2022/10/31 01:25:00;;;;;;;4.57;4.17;;;;;;;22.72;61.77;97926.59;5051582;28;20678;-31
2022/10/31 01:27:26;;;;;;;4.27;3.70;;;;;;;22.72;61.54;97926.59;5056110;28;20200;-31
2022/10/31 01:29:53;;;;;;;4.17;3.87;;;;;;;22.73;61.84;97917.19;5058538;28;20237;-31
2022/10/31 01:32:19;;;;;;;4.80;4.30;;;;;;;22.73;61.80;97925.75;5052234;28;20231;-31
2022/10/31 01:34:46;;;;;;;4.77;4.27;;;;;;;22.73;61.78;97922.31;5049850;28;20208;-31
2022/10/31 01:37:12;;;;;;;4.50;4.10;;;;;;;22.74;61.87;97929.22;5049166;28;22606;-31
2022/10/31 01:39:39;;;;;;;4.53;4.13;;;;;;;22.72;61.65;97939.41;5050897;28;20216;-31
2022/10/31 01:42:05;;;;;;;4.30;3.90;;;;;;;22.73;61.72;97932.56;5054963;28;20224;-31
2022/10/31 01:44:32;;;;;;;4.10;3.80;;;;;;;22.73;61.73;97933.44;5047265;28;20205;-31
2022/10/31 01:47:24;;;;;;;4.30;3.90;;;;;;;22.56;61.73;97903.00;5049958;28;20205;-31
2022/10/31 01:49:56;;;;;;;4.70;4.30;;;;;;;22.61;61.65;97916.81;5047589;28;20727;-31
2022/10/31 01:52:55;;;;;;;4.10;3.80;;;;;;;22.69;61.80;97928.19;5059728;28;20227;-31
2022/10/31 01:55:25;;;;;;;4.30;3.90;;;;;;;22.74;61.70;97934.34;5044718;28;20209;-31
2022/10/31 01:57:59;;;;;;;3.83;3.53;;;;;;;22.73;61.77;97930.88;5056594;28;20292;-31
2022/10/31 02:00:26;;;;;;;4.00;3.70;;;;;;;22.73;61.95;97925.75;5057719;28;20607;-31
2022/10/31 02:02:55;;;;;;;4.20;3.80;;;;;;;22.73;61.69;97927.44;5060365;28;20211;-31
2022/10/31 02:05:24;;;;;;;3.90;3.60;;;;;;;22.64;61.74;97922.03;5056090;28;20773;-31
2022/10/31 02:08:10;;;;;;;4.27;3.87;;;;;;;22.74;61.73;97939.44;5044977;28;20720;-31
2022/10/31 02:10:37;;;;;;;4.63;4.23;;;;;;;22.74;61.69;97936.91;5024577;28;20695;-31
2022/10/31 02:13:05;;;;;;;4.67;4.20;;;;;;;22.72;61.69;97934.28;5051349;28;20208;-31
2022/10/31 02:15:32;;;;;;;3.93;3.63;;;;;;;22.61;61.60;97920.25;5053224;28;20595;-31
2022/10/31 02:17:58;;;;;;;3.83;3.53;;;;;;;22.67;62.04;97935.81;5049051;28;20702;-31
2022/10/31 02:20:29;;;;;;;3.90;3.60;;;;;;;22.74;61.59;97944.59;5048100;28;20229;-31
2022/10/31 02:23:17;;;;;;;3.97;3.67;;;;;;;22.73;61.64;97941.13;5048107;28;20234;-31
2022/10/31 02:26:00;;;;;;;4.33;3.93;;;;;;;22.73;61.62;97943.69;5046529;28;20231;-31
2022/10/31 02:28:26;;;;;;;4.40;4.00;;;;;;;22.74;61.67;97947.16;5060770;28;20682;-31
2022/10/31 02:31:15;;;;;;;4.17;3.80;;;;;;;22.74;61.61;97942.03;5049770;28;20316;-31
2022/10/31 02:33:57;;;;;;;4.13;3.73;;;;;;;22.64;61.59;97919.47;5049938;28;20696;-31
2022/10/31 02:36:44;;;;;;;4.43;4.07;;;;;;;22.74;61.68;97939.44;5026253;28;20208;-31
2022/10/31 02:39:28;;;;;;;4.30;3.97;;;;;;;22.73;61.63;97928.31;5048085;28;20192;-31
2022/10/31 02:42:03;;;;;;;4.53;4.13;;;;;;;22.61;61.66;97906.56;5030791;28;21042;-31
2022/10/31 02:44:43;;;;;;;4.00;3.70;;;;;;;22.61;61.54;97904.88;5049404;28;20199;-31
2022/10/31 02:47:14;;;;;;;4.37;3.97;;;;;;;22.72;61.52;97931.72;5052370;28;20232;-31
2022/10/31 02:49:53;;;;;;;4.33;3.93;;;;;;;22.73;61.68;97936.00;5047968;28;20660;-31
2022/10/31 02:52:27;;;;;;;4.37;3.97;;;;;;;22.72;61.61;97929.16;5051155;28;20232;-31
2022/10/31 02:54:54;;;;;;;3.80;3.50;;;;;;;22.73;61.67;97940.25;5055245;28;20373;-31
2022/10/31 02:57:28;;;;;;;4.07;3.67;;;;;;;22.69;61.71;97935.88;5051115;28;20200;-31
2022/10/31 03:00:06;;;;;;;3.93;3.63;;;;;;;22.72;61.64;97936.84;5049473;28;20239;-31
2022/10/31 03:03:03;;;;;;;3.80;3.50;;;;;;;22.71;61.63;97935.09;5047766;28;20207;-31
2022/10/31 03:05:58;;;;;;;4.03;3.73;;;;;;;22.72;61.60;97936.84;5050714;28;20204;-31
2022/10/31 03:08:55;;;;;;;4.27;3.87;;;;;;;22.58;61.51;97914.16;5051078;28;20667;-31
2022/10/31 03:11:23;;;;;;;4.10;3.70;;;;;;;22.70;61.76;97942.72;5048643;28;20734;-31
2022/10/31 03:13:51;;;;;;;3.70;3.40;;;;;;;22.66;61.78;97938.34;5044711;28;20201;-31
2022/10/31 03:16:23;;;;;;;4.33;3.90;;;;;;;22.70;61.66;97948.72;5030478;28;20206;-31
2022/10/31 03:18:53;;;;;;;4.13;3.73;;;;;;;22.66;61.46;97940.91;5047372;28;20575;-31
2022/10/31 03:21:32;;;;;;;3.97;3.67;;;;;;;22.69;61.65;97949.56;5029938;28;20221;-31
2022/10/31 03:23:59;;;;;;;3.70;3.40;;;;;;;22.66;61.44;97949.47;5039773;28;20200;-31
2022/10/31 03:26:25;;;;;;;3.93;3.63;;;;;;;22.04;61.64;97839.00;5048205;28;20205;-31
2022/10/31 03:28:58;;;;;;;3.70;3.40;;;;;;;22.68;61.73;97955.50;5049438;28;20213;-31
2022/10/31 03:31:28;;;;;;;3.83;3.53;;;;;;;22.69;61.67;97956.38;5050560;28;20710;-31
2022/10/31 03:33:56;;;;;;;3.83;3.53;;;;;;;22.68;61.76;97955.50;5036982;28;20217;-31
2022/10/31 03:36:22;;;;;;;3.60;3.30;;;;;;;22.65;61.59;97942.56;5038854;28;20206;-31
2022/10/31 03:38:49;;;;;;;3.70;3.40;;;;;;;22.65;61.62;97937.44;5033643;28;20215;-31
2022/10/31 03:41:21;;;;;;;3.50;3.20;;;;;;;22.68;61.71;97947.81;5036264;28;20625;-31
2022/10/31 03:44:02;;;;;;;3.70;3.40;;;;;;;22.66;61.70;97943.47;5054130;28;20207;-31
2022/10/31 03:46:28;;;;;;;3.60;3.30;;;;;;;22.69;61.83;97946.13;5023165;28;20205;-31
2022/10/31 03:48:55;;;;;;;3.30;3.00;;;;;;;22.70;61.97;97950.41;5055226;28;20208;-31
2022/10/31 03:51:44;;;;;;;3.83;3.47;;;;;;;22.70;61.79;97950.41;5057832;28;20313;-31
2022/10/31 03:54:25;;;;;;;4.00;3.67;;;;;;;22.70;61.57;97951.28;5054277;28;20212;-31
2022/10/31 03:57:02;;;;;;;4.00;3.70;;;;;;;22.70;61.75;97946.16;5048126;28;20720;-31
2022/10/31 03:59:34;;;;;;;3.77;3.47;;;;;;;22.70;61.77;97947.84;5047413;28;20208;-31
2022/10/31 04:02:06;;;;;;;3.80;3.50;;;;;;;22.70;61.80;97948.72;5029529;28;20220;-31
2022/10/31 04:04:33;;;;;;;3.97;3.60;;;;;;;22.72;61.80;97943.66;5039252;28;20205;-31
2022/10/31 04:07:00;;;;;;;3.77;3.47;;;;;;;22.62;61.83;97927.09;5059309;28;21084;-31
2022/10/31 04:09:27;;;;;;;3.80;3.50;;;;;;;22.73;61.68;97940.25;5033865;28;20665;-31
2022/10/31 04:11:54;;;;;;;3.73;3.43;;;;;;;22.69;61.77;97938.44;5031534;28;20223;-31
2022/10/31 04:14:22;;;;;;;3.40;3.10;;;;;;;22.73;61.71;97942.81;5033071;28;20209;-31
2022/10/31 04:16:48;;;;;;;3.30;3.03;;;;;;;22.67;61.58;97925.56;5047564;28;20714;-31
2022/10/31 04:19:15;;;;;;;3.70;3.40;;;;;;;22.71;61.79;97932.53;5052483;28;20208;-32
2022/10/31 04:21:44;;;;;;;3.40;3.10;;;;;;;22.75;61.75;97930.94;5047404;28;20217;-31
2022/10/31 04:24:11;;;;;;;4.03;3.67;;;;;;;22.74;61.80;97939.44;5045470;28;20208;-31
2022/10/31 04:26:37;;;;;;;3.80;3.50;;;;;;;22.74;61.66;97935.19;5053445;28;20205;-31
2022/10/31 04:29:04;;;;;;;3.73;3.43;;;;;;;22.76;61.57;97940.34;5050973;28;20204;-31
2022/10/31 04:31:30;;;;;;;3.50;3.20;;;;;;;22.72;61.80;97936.84;5060455;28;20689;-31
2022/10/31 04:33:57;;;;;;;3.97;3.53;;;;;;;22.72;61.74;97939.41;5062567;28;20205;-31
2022/10/31 04:36:23;;;;;;;3.60;3.30;;;;;;;22.73;61.83;97940.25;5052496;28;20251;-31
2022/10/31 04:38:50;;;;;;;3.60;3.30;;;;;;;22.77;61.76;97950.66;5052201;28;20201;-31
2022/10/31 04:41:16;;;;;;;3.30;3.10;;;;;;;22.77;62.05;97942.13;5056369;28;20221;-31
2022/10/31 04:43:43;;;;;;;3.47;3.17;;;;;;;22.74;61.69;97936.91;5058467;28;20201;-31
2022/10/31 04:46:09;;;;;;;3.43;3.17;;;;;;;22.78;61.82;97943.84;5044298;28;20224;-31
2022/10/31 04:48:36;;;;;;;3.83;3.47;;;;;;;22.77;61.71;97937.84;5051287;28;20201;-31
2022/10/31 04:51:02;;;;;;;3.33;3.03;;;;;;;22.75;61.62;97930.94;5066317;28;20232;-31
2022/10/31 04:53:29;;;;;;;3.50;3.20;;;;;;;22.78;61.71;97938.72;5059036;28;20209;-31
2022/10/31 04:55:57;;;;;;;3.30;3.00;;;;;;;22.78;61.70;97934.47;5059366;28;20762;-31
2022/10/31 04:58:24;;;;;;;3.27;3.07;;;;;;;22.78;61.74;97936.16;5051467;28;20212;-31
2022/10/31 05:00:54;;;;;;;3.53;3.23;;;;;;;22.79;61.75;97943.88;5052060;28;20229;-31
2022/10/31 05:03:20;;;;;;;3.70;3.40;;;;;;;22.76;61.60;97937.78;5051668;28;20201;-31
2022/10/31 05:05:47;;;;;;;3.23;3.03;;;;;;;22.79;61.57;97933.63;5051727;28;20209;-31
2022/10/31 05:08:14;;;;;;;3.97;3.63;;;;;;;22.79;61.72;97938.75;5051233;28;20197;-31
2022/10/31 05:10:40;;;;;;;3.40;3.10;;;;;;;22.79;61.61;97932.75;5057673;28;20231;-31
2022/10/31 05:13:07;;;;;;;3.70;3.37;;;;;;;22.80;61.41;97929.41;5051508;28;20225;-31
2022/10/31 05:15:34;;;;;;;3.10;2.90;;;;;;;22.81;61.73;97933.69;5050852;28;20633;-31
2022/10/31 05:18:01;;;;;;;3.27;3.00;;;;;;;22.75;61.83;97928.38;5051675;28;20208;-31
2022/10/31 05:20:29;;;;;;;3.50;3.20;;;;;;;22.80;61.71;97939.66;5056973;28;20228;-31
2022/10/31 05:22:56;;;;;;;3.10;2.90;;;;;;;22.81;61.77;97934.56;5059214;28;20201;-31
2022/10/31 05:25:24;;;;;;;3.40;3.10;;;;;;;22.80;61.66;97937.94;5061769;28;20208;-31
2022/10/31 05:27:50;;;;;;;3.10;2.90;;;;;;;22.78;61.58;97931.03;5053748;28;20212;-31
2022/10/31 05:30:19;;;;;;;3.47;3.20;;;;;;;22.81;61.70;97941.38;5059184;28;20596;-31
2022/10/31 05:32:47;;;;;;;3.53;3.23;;;;;;;22.80;61.70;97930.25;5059083;28;20224;-31
2022/10/31 05:35:17;;;;;;;3.30;3.00;;;;;;;22.81;61.64;97932.00;5054892;28;20201;-31
2022/10/31 05:37:43;;;;;;;3.40;3.13;;;;;;;22.81;61.70;97934.56;5051419;28;20204;-31
2022/10/31 05:40:11;;;;;;;3.57;3.27;;;;;;;22.79;61.69;97936.19;5044635;28;20515;-32
2022/10/31 05:42:38;;;;;;;3.20;2.90;;;;;;;22.81;61.72;97941.38;5046929;28;20197;-31
2022/10/31 05:45:06;;;;;;;4.73;3.47;;;;;;;22.81;61.73;97937.13;5053995;28;20204;-31
2022/10/31 05:47:33;;;;;;;3.27;3.03;;;;;;;22.82;61.70;97941.41;5051597;28;20197;-31
2022/10/31 05:49:59;;;;;;;3.20;3.00;;;;;;;22.80;61.67;97939.66;5060734;28;20239;-31
2022/10/31 05:52:26;;;;;;;3.30;3.00;;;;;;;22.82;61.69;97940.53;5062796;28;20224;-31
2022/10/31 05:54:52;;;;;;;3.40;3.20;;;;;;;22.79;61.66;97940.44;5051896;28;20224;-31
2022/10/31 05:57:19;;;;;;;3.13;2.93;;;;;;;22.80;61.55;97939.66;5054771;28;20211;-31
2022/10/31 05:59:45;;;;;;;3.30;3.00;;;;;;;22.82;61.70;97945.66;5050712;28;20239;-31
2022/10/31 06:02:17;;;;;;;3.00;2.80;;;;;;;22.82;61.61;97953.34;5050065;28;20205;-31
2022/10/31 06:04:44;;;;;;;3.50;3.20;;;;;;;22.81;61.60;97952.50;5059925;28;20691;-32
2022/10/31 06:07:10;;;;;;;3.47;3.17;;;;;;;22.82;61.63;97953.34;5054587;28;20208;-31
2022/10/31 06:09:37;;;;;;;3.30;3.00;;;;;;;22.82;61.54;97954.22;5050649;28;20679;-31
2022/10/31 06:12:03;;;;;;;3.53;3.23;;;;;;;22.79;61.65;97951.56;5052823;28;20220;-32
2022/10/31 06:14:30;;;;;;;3.77;3.47;;;;;;;22.81;61.58;97954.19;5056399;28;20205;-31
2022/10/31 06:16:56;;;;;;;3.43;3.13;;;;;;;22.81;61.63;97960.19;5063977;28;20546;-31
2022/10/31 06:19:23;;;;;;;3.40;3.10;;;;;;;22.76;61.59;97954.03;5053145;28;20608;-31
2022/10/31 06:21:49;;;;;;;3.20;3.00;;;;;;;22.81;61.47;97955.06;5058951;28;20197;-31
2022/10/31 06:24:16;;;;;;;3.10;2.90;;;;;;;22.82;61.68;97961.03;5052909;28;20580;-31
2022/10/31 06:26:42;;;;;;;3.27;3.07;;;;;;;22.81;61.57;97961.88;5053918;28;20200;-31
2022/10/31 06:29:09;;;;;;;3.27;2.97;;;;;;;22.76;61.57;97953.16;5045021;28;20687;-31
2022/10/31 06:31:35;;;;;;;3.30;3.00;;;;;;;22.81;61.56;97970.44;5058758;28;20228;-31
2022/10/31 06:34:02;;;;;;;3.40;3.10;;;;;;;22.75;61.62;97952.31;5065202;28;20200;-31
2022/10/31 06:36:28;;;;;;;3.23;2.93;;;;;;;22.81;61.40;97957.63;5052850;28;20201;-31
2022/10/31 06:38:55;;;;;;;3.20;2.90;;;;;;;22.80;61.64;97958.44;5052573;28;20204;-31
2022/10/31 06:41:21;;;;;;;3.40;3.10;;;;;;;22.78;61.62;97954.97;5053228;28;20239;-31
2022/10/31 06:43:48;;;;;;;3.00;2.80;;;;;;;22.81;61.68;97960.19;5053134;28;20208;-31
2022/10/31 06:46:14;;;;;;;3.43;3.13;;;;;;;22.80;61.64;97952.47;5067074;28;20204;-31
2022/10/31 06:48:41;;;;;;;2.93;2.73;;;;;;;22.81;61.61;97960.19;5052596;28;20204;-31
2022/10/31 06:51:08;;;;;;;3.20;3.00;;;;;;;22.79;61.65;97958.38;5055433;28;20220;-31
2022/10/31 06:53:34;;;;;;;3.00;2.80;;;;;;;22.78;61.60;97952.41;5064031;28;20232;-31
2022/10/31 06:56:01;;;;;;;3.10;2.90;;;;;;;22.81;61.56;97960.19;5061873;28;20205;-31
2022/10/31 06:58:27;;;;;;;3.03;2.83;;;;;;;22.82;61.64;97961.91;5057878;28;20212;-31
2022/10/31 07:00:54;;;;;;;3.13;2.93;;;;;;;22.82;61.62;97961.03;5059171;28;20224;-31
2022/10/31 07:03:20;;;;;;;2.90;2.70;;;;;;;22.82;61.57;97967.06;5057337;28;20208;-31
2022/10/31 07:05:47;;;;;;;3.07;2.87;;;;;;;22.80;61.63;97967.84;5054980;28;20204;-32
2022/10/31 07:08:13;;;;;;;2.87;2.67;;;;;;;22.82;61.62;97967.06;5052738;28;20201;-31
2022/10/31 07:10:41;;;;;;;3.30;3.00;;;;;;;22.81;61.67;97975.56;5053104;28;20221;-31
2022/10/31 07:13:12;;;;;;;3.33;3.03;;;;;;;22.81;61.54;97970.44;5056546;28;20224;-31
2022/10/31 07:15:39;;;;;;;3.60;3.30;;;;;;;22.80;61.75;97966.13;5067162;28;20230;-31
2022/10/31 07:18:08;;;;;;;3.13;2.93;;;;;;;22.81;61.67;97967.88;5052914;28;20201;-31
2022/10/31 07:20:34;;;;;;;3.23;2.93;;;;;;;22.83;61.68;97970.50;5058813;28;20234;-31
2022/10/31 07:23:01;;;;;;;3.10;2.90;;;;;;;22.82;61.59;97974.75;5053268;28;20194;-31
2022/10/31 07:25:28;;;;;;;3.37;3.07;;;;;;;22.82;61.62;97969.59;5056524;28;20247;-31
2022/10/31 07:27:55;;;;;;;3.17;2.97;;;;;;;22.82;61.55;97978.97;5053037;28;20200;-31
2022/10/31 07:30:21;;;;;;;2.90;2.70;;;;;;;22.79;61.58;97969.50;5052263;28;20458;-31
2022/10/31 07:32:49;;;;;;;3.23;3.03;;;;;;;22.81;61.63;97967.00;5052668;28;20224;-31
2022/10/31 07:35:20;;;;;;;2.90;2.70;;;;;;;22.75;61.53;97954.88;5054843;28;20200;-31
2022/10/31 07:37:47;;;;;;;2.90;2.70;;;;;;;22.81;61.65;97959.31;5052363;28;20197;-31
2022/10/31 07:40:14;;;;;;;2.97;2.77;;;;;;;22.81;61.55;97965.31;5054033;28;20216;-31
2022/10/31 07:42:45;;;;;;;3.00;2.80;;;;;;;22.81;61.52;97952.50;5052086;28;20224;-31
2022/10/31 07:45:14;;;;;;;3.07;2.87;;;;;;;22.80;61.58;97958.44;5045849;28;20550;-31
2022/10/31 07:47:42;;;;;;;3.10;2.80;;;;;;;22.80;61.52;97953.31;5048478;28;20297;-31
2022/10/31 07:50:10;;;;;;;3.17;2.97;;;;;;;22.81;61.61;97949.06;5044299;28;20217;-31
2022/10/31 07:52:36;;;;;;;3.07;2.80;;;;;;;22.81;61.51;97949.06;5064002;28;20213;-31
2022/10/31 07:55:03;;;;;;;2.90;2.70;;;;;;;22.80;61.50;97947.34;5067071;28;20467;-31
2022/10/31 07:57:30;;;;;;;3.20;3.00;;;;;;;22.80;61.72;97948.19;5051594;28;20209;-31
2022/10/31 08:00:00;;;;;;;3.03;2.83;;;;;;;22.80;61.66;97949.91;5054505;28;20215;-31
2022/10/31 08:02:26;;;;;;;3.20;3.00;;;;;;;22.80;61.30;97944.78;5051886;28;20678;-31
2022/10/31 08:04:53;;;;;;;2.90;2.70;;;;;;;22.80;61.57;97948.19;5052101;28;20208;-31
2022/10/31 08:07:25;;;;;;;2.70;2.50;;;;;;;22.80;61.71;97942.22;5052473;28;20236;-31
2022/10/31 08:09:52;;;;;;;3.00;2.80;;;;;;;22.80;61.65;97940.50;5056997;28;20224;-31
2022/10/31 08:12:19;;;;;;;3.00;2.80;;;;;;;22.74;61.68;97934.34;5059996;28;20216;-31
2022/10/31 08:14:45;;;;;;;2.93;2.73;;;;;;;22.80;61.54;97940.50;5065854;28;20204;-31
2022/10/31 08:17:12;;;;;;;2.77;2.57;;;;;;;22.81;61.87;97937.13;5058989;28;20215;-31
2022/10/31 08:19:38;;;;;;;2.77;2.57;;;;;;;22.81;61.64;97941.38;5066319;28;20208;-31
2022/10/31 08:22:05;;;;;;;2.80;2.60;;;;;;;22.82;61.68;97948.22;5056185;28;20200;-31
2022/10/31 08:24:31;;;;;;;2.90;2.70;;;;;;;22.81;61.62;97936.25;5055040;28;20201;-31
2022/10/31 08:26:58;;;;;;;2.83;2.63;;;;;;;22.73;61.70;97923.19;5056860;28;20200;-31
2022/10/31 08:29:24;;;;;;;2.93;2.73;;;;;;;22.82;61.67;97932.84;5054127;28;20205;-31
2022/10/31 08:31:51;;;;;;;3.00;2.77;;;;;;;22.82;61.63;97932.84;5056715;28;20204;-31
2022/10/31 08:34:17;;;;;;;2.93;2.73;;;;;;;22.78;61.56;97928.47;5066559;28;20595;-31
2022/10/31 08:36:45;;;;;;;2.83;2.63;;;;;;;22.81;61.54;97934.56;5060365;28;20205;-31
2022/10/31 08:39:12;;;;;;;3.20;2.90;;;;;;;22.81;61.62;97936.25;5047549;28;20193;-31
2022/10/31 08:41:39;;;;;;;2.80;2.60;;;;;;;22.80;61.61;97930.25;5055233;28;20572;-31
2022/10/31 08:44:05;;;;;;;2.70;2.50;;;;;;;22.80;61.62;97932.81;5056501;28;20197;-31
2022/10/31 08:46:32;;;;;;;2.70;2.50;;;;;;;22.78;61.65;97929.34;5058057;28;20201;-31
2022/10/31 08:48:58;;;;;;;3.20;2.90;;;;;;;22.80;61.65;97935.38;5055353;28;20212;-31
2022/10/31 08:51:25;;;;;;;3.10;2.90;;;;;;;22.80;61.69;97927.69;5063204;28;20228;-31
2022/10/31 08:53:51;;;;;;;2.93;2.73;;;;;;;22.80;61.36;97922.56;5059069;28;20224;-31
2022/10/31 08:56:18;;;;;;;3.00;2.80;;;;;;;22.79;61.16;97925.94;5056348;28;20197;-31
2022/10/31 08:58:44;;;;;;;2.60;2.40;;;;;;;22.80;61.57;97931.97;5055208;28;20201;-31
2022/10/31 09:01:11;;;;;;;2.90;2.70;;;;;;;22.80;61.56;97919.16;5055679;28;20216;-31
2022/10/31 09:03:38;;;;;;;2.80;2.60;;;;;;;22.80;61.46;97927.69;5058475;28;20197;-31
2022/10/31 09:06:08;;;;;;;2.90;2.70;;;;;;;22.79;61.71;97925.94;5054682;28;20215;-31
2022/10/31 09:08:35;;;;;;;2.93;2.73;;;;;;;22.79;61.65;97918.25;5051409;28;20580;-31
2022/10/31 09:11:02;;;;;;;3.00;2.80;;;;;;;22.80;61.62;97922.56;5054919;28;20220;-31
2022/10/31 09:13:28;;;;;;;2.90;2.70;;;;;;;22.80;61.71;97920.00;5054179;28;20307;-31
2022/10/31 09:15:55;;;;;;;3.00;2.80;;;;;;;22.66;61.61;97892.22;5063521;28;20208;-31
2022/10/31 09:18:22;;;;;;;2.80;2.60;;;;;;;22.76;61.64;97895.09;5057468;28;20592;-31
2022/10/31 09:20:49;;;;;;;2.70;2.50;;;;;;;22.81;61.64;97908.94;5054365;28;20224;-31
2022/10/31 09:23:20;;;;;;;2.97;2.70;;;;;;;22.79;61.67;97894.31;5059379;28;20193;-31
2022/10/31 09:25:47;;;;;;;3.33;2.90;;;;;;;22.80;61.69;97891.81;5054384;28;20232;-31
2022/10/31 09:28:18;;;;;;;3.00;2.70;;;;;;;22.81;61.68;97900.38;5057738;28;20192;-31
2022/10/31 09:30:46;;;;;;;2.93;2.73;;;;;;;22.81;61.67;97895.25;5054226;28;20221;-31
2022/10/31 09:33:13;;;;;;;2.80;2.60;;;;;;;22.81;61.74;97892.69;5053833;28;20240;-31
2022/10/31 09:35:40;;;;;;;2.90;2.70;;;;;;;22.81;61.70;97893.56;5054023;28;20204;-31
2022/10/31 09:38:09;;;;;;;3.20;3.00;;;;;;;22.80;61.61;97893.53;5068646;28;20213;-31
2022/10/31 09:40:40;;;;;;;3.00;2.80;;;;;;;22.78;61.64;97890.03;5057624;28;20227;-31
2022/10/31 09:43:45;;;;;;;3.17;2.87;;;;;;;22.80;61.61;97896.94;5067352;28;20675;-31
2022/10/31 09:46:38;;;;;;;2.97;2.77;;;;;;;22.81;61.65;97902.94;5049823;28;20197;-31
2022/10/31 09:49:41;;;;;;;2.70;2.50;;;;;;;22.80;61.63;97893.53;5053379;28;20211;-31
2022/10/31 09:52:18;;;;;;;3.13;2.93;;;;;;;22.80;61.53;97896.06;5069350;28;20192;-31
2022/10/31 09:54:48;;;;;;;3.40;3.10;;;;;;;22.76;61.59;97887.41;5055514;28;20228;-31
2022/10/31 09:57:16;;;;;;;2.80;2.60;;;;;;;22.79;61.66;97890.06;5053381;28;20205;-31
2022/10/31 09:59:43;;;;;;;3.17;2.97;;;;;;;22.75;61.61;97880.56;5038536;28;20203;-31
2022/10/31 10:02:16;;;;;;;3.03;2.70;;;;;;;22.79;61.54;97878.94;5044532;28;20579;-31
2022/10/31 10:04:51;;;;;;;2.90;2.70;;;;;;;22.79;61.64;97889.19;5054146;28;20197;-31
2022/10/31 10:07:21;;;;;;;2.90;2.70;;;;;;;22.79;61.71;97884.06;5046802;28;20197;-31
2022/10/31 10:09:47;;;;;;;2.90;2.70;;;;;;;22.80;61.65;97880.69;5059883;28;20230;-31
2022/10/31 10:12:20;;;;;;;3.17;2.90;;;;;;;22.79;61.70;97884.94;5054925;28;20205;-31
2022/10/31 10:15:16;;;;;;;2.80;2.60;;;;;;;22.79;61.67;97876.38;5033582;28;20228;-31
2022/10/31 10:18:21;;;;;;;2.83;2.63;;;;;;;22.80;61.60;97879.00;5048499;28;20200;-31
2022/10/31 10:20:58;;;;;;;3.13;2.93;;;;;;;22.80;61.65;97881.56;5053754;28;20227;-31
2022/10/31 10:23:56;;;;;;;2.83;2.63;;;;;;;22.80;61.69;97880.69;5051888;28;20773;-31
2022/10/31 10:26:28;;;;;;;3.17;2.97;;;;;;;22.71;61.63;97865.91;5051783;28;20200;-31
2022/10/31 10:28:58;;;;;;;2.80;2.60;;;;;;;22.80;61.64;97875.56;5052006;28;20196;-31
2022/10/31 10:31:29;;;;;;;3.00;2.80;;;;;;;22.80;61.69;97873.00;5050892;28;20591;-31
2022/10/31 10:34:17;;;;;;;2.90;2.70;;;;;;;22.79;61.70;97874.69;5048752;28;20213;-31
2022/10/31 10:37:22;;;;;;;2.80;2.60;;;;;;;22.80;61.71;97870.44;5058273;28;20202;-31
2022/10/31 10:39:52;;;;;;;3.10;2.90;;;;;;;22.73;61.76;97860.81;5058393;28;20220;-31
2022/10/31 10:48:38;;;;;;;3.30;3.03;;;;;;;22.79;61.67;97861.88;5052561;28;20209;-31
2022/10/31 10:51:05;;;;;;;3.00;2.80;;;;;;;22.79;61.96;97855.88;5054936;28;20215;-31
2022/10/31 10:54:03;;;;;;;3.50;3.20;;;;;;;22.79;61.78;97853.31;5057755;28;20248;-31
2022/10/31 10:56:35;;;;;;;3.13;2.77;;;;;;;22.79;61.58;97853.31;5051249;28;20688;-31
2022/10/31 10:59:02;;;;;;;3.63;3.33;;;;;;;22.78;61.80;97843.91;5052774;28;20196;-31
2022/10/31 11:01:28;;;;;;;3.20;2.90;;;;;;;22.78;61.74;97849.91;5050891;28;20223;-31
2022/10/31 11:03:55;;;;;;;3.20;3.00;;;;;;;22.78;61.63;97844.78;5042984;28;20554;-31
2022/10/31 11:06:25;;;;;;;3.33;3.03;;;;;;;22.80;61.79;97842.25;5063122;28;20227;-31
2022/10/31 11:08:52;;;;;;;3.27;3.07;;;;;;;22.75;61.70;97826.75;5044542;28;20228;-31
2022/10/31 11:11:31;;;;;;;3.43;3.13;;;;;;;22.76;61.79;97827.59;5053483;28;20228;-31
2022/10/31 11:14:11;;;;;;;3.27;2.97;;;;;;;22.73;61.75;97828.41;5051783;28;20220;-31
2022/10/31 11:16:43;;;;;;;3.40;3.10;;;;;;;22.78;61.75;97831.97;5062976;28;20582;-31
2022/10/31 11:19:14;;;;;;;3.40;3.10;;;;;;;22.79;61.66;97820.00;5045303;28;20201;-31
2022/10/31 11:21:41;;;;;;;3.30;3.10;;;;;;;22.80;61.70;97826.88;5053682;28;20225;-31
2022/10/31 11:24:14;;;;;;;3.43;3.13;;;;;;;22.79;61.69;97825.13;5052974;28;20577;-31
2022/10/31 11:26:42;;;;;;;3.57;3.27;;;;;;;22.77;61.64;97814.00;5054488;28;20706;-31
2022/10/31 11:29:25;;;;;;;3.30;3.00;;;;;;;22.79;61.64;97823.44;5050900;28;20197;-31
2022/10/31 11:31:53;;;;;;;3.50;3.20;;;;;;;22.79;61.66;97809.75;5052767;28;20204;-31
2022/10/31 11:34:35;;;;;;;3.67;3.37;;;;;;;22.80;61.63;97808.94;5052895;28;20221;-31
2022/10/31 11:37:23;;;;;;;3.53;3.23;;;;;;;22.79;61.63;97805.50;5050752;28;20196;-31
2022/10/31 11:39:53;;;;;;;3.13;2.83;;;;;;;22.74;61.51;97799.38;5053903;28;20240;-31
2022/10/31 11:42:28;;;;;;;3.37;3.10;;;;;;;22.76;61.65;97792.59;5051319;28;20197;-31
2022/10/31 11:44:55;;;;;;;3.37;3.00;;;;;;;22.79;61.42;97799.50;5055739;28;20208;-31
2022/10/31 11:47:26;;;;;;;3.53;3.23;;;;;;;22.79;61.66;97791.81;5047094;28;20578;-31
2022/10/31 11:49:53;;;;;;;3.60;3.30;;;;;;;22.79;61.34;97797.81;5052753;28;20225;-31
2022/10/31 11:52:27;;;;;;;3.60;3.30;;;;;;;22.76;61.66;97784.03;5051155;28;20200;-31
2022/10/31 11:55:12;;;;;;;3.63;3.33;;;;;;;22.79;61.58;97786.69;5038376;28;20228;-31